Latest Weather Observations for Mount Lofty

IDS60801

Issued at 5:31 am CST Friday 26 August 2016 (issued every 30 minutes, with the page automatically refreshed every 10 minutes)

About weather observations | Map of weather stations | Latest weather observations for SA | Other Formats
Station Details ID: 023842 Name: MOUNT LOFTY Lat: -34.98 Lon: 138.71 Height: 685.0 m
Data from the previous 72 hours. | See also: Recent months at Mount Lofty
Date/Time
CST
Temp
°C
App
Temp
°C
Dew
Point
°C
Rel
Hum
%
Delta-T
°C
Wind Press
QNH
hPa
Press
MSL
hPa
Rain since
9am
mm
Dir  Spd
km/h
Gust
km/h
Spd
kts
Gust
kts
26/05:30am 3.9 1.1 2.3 89 0.7 WSW 6 9 3 5 - - 0.6
26/05:00am 4.0 1.2 2.2 88 0.7 WSW 6 9 3 5 - - 0.6
26/04:30am 4.2 1.6 3.3 94 0.4 W 6 9 3 5 - - 0.6
26/04:00am 4.7 2.2 3.7 93 0.4 W 6 9 3 5 - - 0.6
26/03:30am 4.6 1.9 3.6 93 0.4 WSW 7 13 4 7 - - 0.6
26/03:00am 4.1 1.5 3.2 94 0.4 WSW 6 11 3 6 - - 0.6
26/02:30am 4.5 1.8 3.6 94 0.4 SW 7 13 4 7 - - 0.6
26/02:00am 4.6 2.1 3.7 94 0.4 SW 6 9 3 5 - - 0.6
26/01:30am 4.6 2.1 3.7 94 0.4 WSW 6 11 3 6 - - 0.6
26/01:00am 4.6 2.1 3.6 93 0.4 WSW 6 9 3 5 - - 0.6
26/12:30am 4.7 2.2 3.5 92 0.5 S 6 11 3 6 - - 0.6
26/12:00am 4.7 2.2 3.5 92 0.5 S 6 9 3 5 - - 0.6
 
Date/Time
CST
Temp
°C
App
Temp
°C
Dew
Point
°C
Rel
Hum
%
Delta-T
°C
Wind Press
QNH
hPa
Press
MSL
hPa
Rain since
9am
mm
Dir  Spd
km/h
Gust
km/h
Spd
kts
Gust
kts
25/11:30pm 4.6 2.0 3.4 92 0.5 S 6 9 3 5 - - 0.6
25/11:00pm 4.6 2.0 3.4 92 0.5 SSE 6 11 3 6 - - 0.6
25/10:30pm 4.6 2.1 3.7 94 0.4 S 6 11 3 6 - - 0.6
25/10:00pm 4.7 2.2 4.0 95 0.3 SSE 6 13 3 7 - - 0.6
25/09:30pm 5.0 2.6 4.3 95 0.3 SSE 6 9 3 5 - - 0.6
25/09:00pm 5.2 2.8 4.3 94 0.4 SSE 6 13 3 7 - - 0.4
25/08:30pm 5.1 2.7 4.1 93 0.4 S 6 11 3 6 - - 0.4
25/08:00pm 5.4 3.4 4.2 92 0.5 S 4 9 2 5 - - 0.4
25/07:30pm 5.6 3.2 4.2 91 0.6 SW 6 9 3 5 - - 0.4
25/07:00pm 5.8 3.8 4.4 91 0.6 SW 4 6 2 3 - - 0.4
25/06:30pm 5.9 3.8 4.1 88 0.8 SSW 4 13 2 7 - - 0.4
25/06:00pm 5.7 3.2 3.9 88 0.8 SSW 6 9 3 5 - - 0.4
25/05:30pm 5.8 3.3 4.0 88 0.8 SW 6 9 3 5 - - 0.4
25/05:00pm 6.3 3.7 4.1 86 1.0 SW 7 15 4 8 - - 0.4
25/04:30pm 7.1 4.8 4.8 85 1.1 SW 6 17 3 9 - - 0.4
25/04:00pm 7.2 4.8 4.3 82 1.3 SW 6 9 3 5 - - 0.4
25/03:30pm 7.8 5.7 4.0 77 1.7 SW 4 9 2 5 - - 0.4
25/03:00pm 7.7 5.9 5.2 84 1.2 SSW 4 9 2 5 - - 0.4
25/02:30pm 7.6 5.2 4.4 80 1.5 WSW 6 13 3 7 - - 0.2
25/02:00pm 8.0 5.5 3.8 75 1.9 SW 6 13 3 7 - - 0.0
25/01:30pm 8.0 5.5 1.8 65 2.7 SSW 4 9 2 5 - - 0.0
25/01:00pm 8.9 6.0 1.3 59 3.3 SW 6 11 3 6 - - 0.0
25/12:30pm 8.2 5.1 1.6 63 2.8 SSW 7 13 4 7 - - 0.0
25/12:00pm 8.0 6.1 3.1 71 2.2 SW 2 6 1 3 - - 0.0
25/11:30am 8.3 5.6 2.5 67 2.5 SSE 6 9 3 5 - - 0.0
25/11:00am 7.5 4.9 3.0 73 2.0 S 6 9 3 5 - - 0.0
25/10:30am 6.6 3.9 2.9 77 1.6 SSE 6 13 3 7 - - 0.0
25/10:00am 6.4 3.5 2.7 77 1.6 S 7 13 4 7 - - 0.0
25/09:30am 6.4 3.8 3.4 81 1.3 SE 6 15 3 8 - - 0.0
25/09:00am 5.9 2.8 3.4 84 1.1 ESE 9 19 5 10 - - 3.2
25/08:30am 5.1 2.4 3.9 92 0.5 ESE 7 13 4 7 - - 3.2
25/08:00am 3.9 1.1 3.3 96 0.3 ESE 7 15 4 8 - - 3.2
25/07:30am 2.9 0.0 2.5 97 0.2 ESE 7 15 4 8 - - 3.2
25/07:00am 2.1 -0.9 1.7 97 0.2 ESE 7 17 4 9 - - 3.2
25/06:30am 1.8 -1.3 1.4 97 0.2 ESE 7 13 4 7 - - 3.2
25/06:00am 1.8 -1.1 1.4 97 0.2 ESE 6 9 3 5 - - 3.2
25/05:30am 1.9 -1.2 1.5 97 0.2 ESE 7 13 4 7 - - 3.2
25/05:00am 2.0 -0.9 1.6 97 0.2 ESE 6 9 3 5 - - 3.2
25/04:30am 2.3 -0.7 1.9 97 0.2 ESE 7 13 4 7 - - 3.0
25/04:00am 2.4 -1.0 2.0 97 0.2 ESE 9 15 5 8 - - 3.0
25/03:30am 2.7 -0.7 2.1 96 0.2 ESE 9 13 5 7 - - 3.0
25/03:00am 3.0 -0.3 2.4 96 0.2 ESE 9 13 5 7 - - 3.0
25/02:30am 2.9 -0.4 2.3 96 0.2 ESE 9 17 5 9 - - 3.0
25/02:00am 3.0 -0.3 2.4 96 0.2 ESE 9 17 5 9 - - 3.0
25/01:30am 3.0 -0.3 2.4 96 0.2 ESE 9 15 5 8 - - 3.0
25/01:00am 2.9 -0.4 2.2 95 0.3 ESE 9 15 5 8 - - 3.0
25/12:30am 3.0 -0.3 2.3 95 0.3 ESE 9 15 5 8 - - 3.0
25/12:00am 3.1 -0.2 2.4 95 0.3 ESE 9 15 5 8 - - 3.0
 
Date/Time
CST
Temp
°C
App
Temp
°C
Dew
Point
°C
Rel
Hum
%
Delta-T
°C
Wind Press
QNH
hPa
Press
MSL
hPa
Rain since
9am
mm
Dir  Spd
km/h
Gust
km/h
Spd
kts
Gust
kts
24/11:30pm 3.2 -0.1 2.5 95 0.3 ESE 9 15 5 8 - - 3.0
24/11:00pm 3.2 -0.1 2.5 95 0.3 ESE 9 15 5 8 - - 3.0
24/10:30pm 3.1 -0.2 2.2 94 0.4 ESE 9 19 5 10 - - 3.0
24/10:00pm 3.1 -0.2 2.2 94 0.4 ESE 9 17 5 9 - - 3.0
24/09:30pm 2.9 -0.5 2.0 94 0.4 ESE 9 13 5 7 - - 3.0
24/09:00pm 3.0 -0.4 2.0 93 0.4 ESE 9 15 5 8 - - 3.0
24/08:30pm 3.0 -0.4 2.0 93 0.4 ESE 9 15 5 8 - - 3.0
24/08:00pm 3.2 0.2 2.0 92 0.5 ESE 7 17 4 9 - - 3.0
24/07:30pm 3.6 0.3 2.3 91 0.5 ESE 9 13 5 7 - - 3.0
24/07:00pm 4.0 1.1 2.8 92 0.5 ESE 7 13 4 7 - - 3.0
24/06:30pm 5.1 2.5 4.2 94 0.4 ESE 7 13 4 7 - - 3.0
24/06:00pm 5.2 2.8 4.2 93 0.4 ESE 6 9 3 5 - - 3.0
24/05:30pm 5.5 3.1 4.3 92 0.5 ESE 6 9 3 5 - - 3.0
24/05:00pm 6.5 4.3 5.3 92 0.6 ESE 6 9 3 5 - - 3.0
24/04:30pm 7.3 5.3 6.4 94 0.4 ESE 6 11 3 6 - - 3.0
24/04:00pm 6.1 3.7 5.1 93 0.5 ESE 7 15 4 8 - - 2.8
24/03:30pm 6.5 4.6 5.1 91 0.6 ESE 4 7 2 4 - - 1.8
24/03:00pm 7.4 5.7 5.9 90 0.7 ESE 4 7 2 4 - - 0.8
24/02:30pm 6.8 4.6 5.3 90 0.7 ESE 6 9 3 5 - - 0.8
24/02:00pm 7.5 5.7 5.3 86 1.0 E 4 9 2 5 - - 0.4
24/01:30pm 8.4 6.2 5.3 81 1.4 ESE 6 9 3 5 - - 0.0
24/01:00pm 8.6 6.8 5.2 79 1.6 ESE 4 6 2 3 - - 0.0
24/12:30pm 9.1 7.2 4.9 75 2.0 NW 4 9 2 5 - - 0.0
24/12:00pm 11.1 9.2 6.5 73 2.3 SSE 6 13 3 7 - - 0.0
24/11:30am 9.7 7.8 4.9 72 2.2 E 4 7 2 4 - - 0.0
24/11:00am 9.9 7.9 6.1 77 1.8 E 6 15 3 8 - - 0.0
24/10:30am 9.0 7.8 6.4 84 1.3 E 2 7 1 4 - - 0.0
24/10:00am 8.7 6.6 5.8 82 1.4 ESE 6 9 3 5 - - 0.0
24/09:30am 8.3 7.0 6.1 86 1.0 E 2 6 1 3 - - 0.0
24/09:00am 7.2 5.4 5.5 89 0.8 ESE 4 7 2 4 - - 1.6
24/08:30am 6.9 5.1 5.2 89 0.8 ESE 4 7 2 4 - - 1.6
24/08:00am 7.0 5.8 4.5 84 1.1 CALM 0 0 0 0 - - 1.6
24/07:30am 6.3 4.9 3.8 84 1.1 CALM 0 0 0 0 - - 1.6
24/07:00am 6.2 5.0 4.7 90 0.7 CALM 0 0 0 0 - - 1.6
24/06:30am 5.8 3.9 4.9 94 0.4 ESE 4 7 2 4 - - 1.6
24/06:00am 5.3 4.1 4.4 94 0.4 CALM 0 0 0 0 - - 1.6
24/05:30am 5.0 3.3 4.1 94 0.4 E 2 2 1 1 - - 1.6
24/05:00am 4.7 2.6 3.7 93 0.4 ESE 4 4 2 2 - - 1.6
24/04:30am 4.6 2.1 3.7 94 0.4 ESE 6 7 3 4 - - 1.6
24/04:00am 4.3 1.7 3.4 94 0.4 ESE 6 11 3 6 - - 1.6
24/03:30am 4.4 1.9 3.5 94 0.4 ESE 6 7 3 4 - - 1.6
24/03:00am 4.2 1.7 3.5 95 0.3 ESE 6 9 3 5 - - 1.6
24/02:30am 4.3 1.8 3.7 96 0.3 ESE 6 11 3 6 - - 1.6
24/02:00am 4.3 1.8 3.7 96 0.3 ESE 6 11 3 6 - - 1.6
24/01:30am 4.4 1.9 3.8 96 0.3 ESE 6 11 3 6 - - 1.6
24/01:00am 4.3 1.6 3.9 97 0.2 ESE 7 13 4 7 - - 1.6
24/12:30am 4.3 1.6 3.9 97 0.2 ESE 7 11 4 6 - - 1.6
24/12:00am 4.6 2.0 4.2 97 0.2 ESE 7 17 4 9 - - 1.6
 
Date/Time
CST
Temp
°C
App
Temp
°C
Dew
Point
°C
Rel
Hum
%
Delta-T
°C
Wind Press
QNH
hPa
Press
MSL
hPa
Rain since
9am
mm
Dir  Spd
km/h
Gust
km/h
Spd
kts
Gust
kts
23/11:30pm 4.8 2.2 4.2 96 0.3 ESE 7 15 4 8 - - 1.6
23/11:00pm 5.3 2.4 4.9 97 0.2 ESE 9 13 5 7 - - 1.6
23/10:30pm 5.1 2.6 4.7 97 0.2 ESE 7 13 4 7 - - 1.6
23/10:00pm 5.2 2.7 4.6 96 0.3 ESE 7 13 4 7 - - 1.6
23/09:30pm 5.8 3.1 5.4 97 0.2 ESE 9 17 5 9 - - 1.6
23/09:00pm 6.1 3.4 5.7 97 0.2 ESE 9 17 5 9 - - 1.6
23/08:30pm 6.1 3.4 5.5 96 0.3 ESE 9 19 5 10 - - 1.6
23/08:00pm 6.1 3.4 5.5 96 0.3 ESE 9 17 5 9 - - 1.6
23/07:30pm 6.1 3.0 5.5 96 0.3 ESE 11 17 6 9 - - 1.6
23/07:00pm 6.1 3.4 5.4 95 0.3 ESE 9 17 5 9 - - 1.6
23/06:30pm 6.5 3.8 5.8 95 0.3 ESE 9 19 5 10 - - 1.6
23/06:00pm 6.9 4.7 6.0 94 0.4 ESE 7 13 4 7 - - 1.6
23/05:30pm 7.4 5.4 6.3 93 0.5 ESE 6 11 3 6 - - 1.4
23/05:00pm 7.8 6.2 6.3 90 0.7 SSE 4 7 2 4 - - 1.4
23/04:30pm 8.5 6.8 6.1 85 1.1 S 4 7 2 4 - - 1.4
23/04:00pm 9.1 7.8 6.0 81 1.5 SW 2 6 1 3 - - 1.4
23/03:30pm 8.7 6.9 7.0 89 0.8 WSW 6 11 3 6 - - 1.4
23/03:00pm 8.3 6.7 6.3 87 1.0 W 4 6 2 3 - - 0.2
23/02:30pm 8.9 7.2 6.0 82 1.4 WSW 4 6 2 3 - - 0.0
23/02:00pm 9.0 8.0 5.7 80 1.6 CALM 0 2 0 1 - - 0.0
23/01:30pm 8.8 7.1 6.1 83 1.3 WSW 4 6 2 3 - - 0.0
23/01:00pm 8.8 6.9 4.8 76 1.9 NW 4 9 2 5 - - 0.0
23/12:30pm 8.4 6.1 5.0 79 1.6 NNW 6 7 3 4 - - 0.0
23/12:00pm 8.6 6.2 4.4 75 1.9 NW 6 9 3 5 - - 0.0
23/11:30am 9.4 7.4 4.2 70 2.4 WNW 4 7 2 4 - - 0.0
23/11:00am 10.1 8.1 4.5 68 2.6 ENE 4 9 2 5 - - 0.0
23/10:30am 8.8 6.8 4.6 75 1.9 ENE 4 9 2 5 - - 0.0
23/10:00am 6.7 4.3 5.2 90 0.7 ESE 7 9 4 5 - - 0.0
23/09:30am 7.0 5.0 6.3 95 0.3 ESE 6 9 3 5 - - 0.0
23/09:00am 6.3 4.2 5.9 97 0.2 E 6 13 3 7 - - 0.0
23/08:30am 5.5 3.3 5.1 97 0.2 ESE 6 9 3 5 - - 0.0
23/08:00am 5.5 3.1 5.1 97 0.2 ESE 7 15 4 8 - - 0.0
23/07:30am 5.5 3.1 5.1 97 0.2 ESE 7 13 4 7 - - 0.0
23/07:00am 4.5 1.9 4.1 97 0.2 ESE 7 13 4 7 - - 0.0
23/06:30am 4.3 1.8 3.9 97 0.2 E 6 9 3 5 - - 0.0
23/06:00am 4.1 1.6 3.7 97 0.2 ESE 6 9 3 5 - - 0.0

Other Formats:

Comma delimited format used in spreadsheet applications
http://www.bom.gov.au/fwo/IDS60801/IDS60801.95678.axf

JavaScript Object Notation format (JSON) in row-major order
http://www.bom.gov.au/fwo/IDS60801/IDS60801.95678.json